sensor_id;sensor_type;location;lat;lon;timestamp;pressure;altitude;pressure_sealevel;temperature;humidity
34243;BME280;20504;43.214;27.920;2023-04-04T00:01:23;97891.81;;;12.74;100.00
34243;BME280;20504;43.214;27.920;2023-04-04T00:03:48;97872.75;;;12.70;100.00
34243;BME280;20504;43.214;27.920;2023-04-04T00:06:17;97858.63;;;12.70;100.00
34243;BME280;20504;43.214;27.920;2023-04-04T00:08:43;97843.53;;;12.62;100.00
34243;BME280;20504;43.214;27.920;2023-04-04T00:11:08;97826.63;;;12.78;100.00
34243;BME280;20504;43.214;27.920;2023-04-04T00:13:34;97879.66;;;12.80;100.00
34243;BME280;20504;43.214;27.920;2023-04-04T00:15:59;97948.66;;;12.73;100.00
34243;BME280;20504;43.214;27.920;2023-04-04T00:18:25;97971.66;;;12.66;100.00
34243;BME280;20504;43.214;27.920;2023-04-04T00:20:50;97991.69;;;12.77;100.00
34243;BME280;20504;43.214;27.920;2023-04-04T00:23:16;98014.44;;;12.87;100.00
34243;BME280;20504;43.214;27.920;2023-04-04T00:25:41;98070.94;;;12.89;100.00
34243;BME280;20504;43.214;27.920;2023-04-04T00:28:08;98128.81;;;12.79;100.00
34243;BME280;20504;43.214;27.920;2023-04-04T00:30:33;98200.28;;;12.82;100.00
34243;BME280;20504;43.214;27.920;2023-04-04T00:32:59;98278.44;;;12.65;100.00
34243;BME280;20504;43.214;27.920;2023-04-04T00:35:26;98270.13;;;12.84;100.00
34243;BME280;20504;43.214;27.920;2023-04-04T00:37:52;98325.28;;;12.74;100.00
34243;BME280;20504;43.214;27.920;2023-04-04T00:40:17;98372.50;;;12.80;100.00
34243;BME280;20504;43.214;27.920;2023-04-04T00:42:43;98409.75;;;12.88;100.00
34243;BME280;20504;43.214;27.920;2023-04-04T00:45:09;98486.88;;;12.80;100.00
34243;BME280;20504;43.214;27.920;2023-04-04T00:47:36;98541.59;;;12.91;100.00
34243;BME280;20504;43.214;27.920;2023-04-04T00:50:02;98587.56;;;13.09;100.00
34243;BME280;20504;43.214;27.920;2023-04-04T00:52:27;98669.47;;;12.89;100.00
34243;BME280;20504;43.214;27.920;2023-04-04T00:54:56;98729.59;;;12.56;100.00
34243;BME280;20504;43.214;27.920;2023-04-04T00:57:21;98728.50;;;12.67;100.00
34243;BME280;20504;43.214;27.920;2023-04-04T00:59:48;98688.91;;;12.64;100.00
34243;BME280;20504;43.214;27.920;2023-04-04T01:02:14;98669.84;;;12.68;100.00
34243;BME280;20504;43.214;27.920;2023-04-04T01:04:39;98648.97;;;12.56;100.00
34243;BME280;20504;43.214;27.920;2023-04-04T01:07:05;98606.75;;;12.53;100.00
34243;BME280;20504;43.214;27.920;2023-04-04T01:09:30;98602.09;;;12.47;100.00
34243;BME280;20504;43.214;27.920;2023-04-04T01:11:56;98602.09;;;12.47;100.00
34243;BME280;20504;43.214;27.920;2023-04-04T01:14:22;98553.81;;;12.67;100.00
34243;BME280;20504;43.214;27.920;2023-04-04T01:16:51;98488.50;;;12.73;100.00
34243;BME280;20504;43.214;27.920;2023-04-04T01:19:23;98497.53;;;12.88;100.00
34243;BME280;20504;43.214;27.920;2023-04-04T01:21:52;98528.84;;;12.60;100.00
34243;BME280;20504;43.214;27.920;2023-04-04T01:24:20;98512.34;;;12.91;100.00
34243;BME280;20504;43.214;27.920;2023-04-04T01:26:49;98569.53;;;12.95;100.00
34243;BME280;20504;43.214;27.920;2023-04-04T01:29:14;98600.31;;;12.97;100.00
34243;BME280;20504;43.214;27.920;2023-04-04T01:31:48;98618.91;;;12.89;100.00
34243;BME280;20504;43.214;27.920;2023-04-04T01:37:39;98551.38;;;12.82;100.00
34243;BME280;20504;43.214;27.920;2023-04-04T01:40:17;98584.59;;;12.78;100.00
34243;BME280;20504;43.214;27.920;2023-04-04T01:42:46;98611.94;;;12.88;100.00
34243;BME280;20504;43.214;27.920;2023-04-04T01:45:12;98621.47;;;13.07;100.00
34243;BME280;20504;43.214;27.920;2023-04-04T01:47:41;98634.03;;;12.89;100.00
34243;BME280;20504;43.214;27.920;2023-04-04T01:50:09;98663.25;;;12.81;100.00
34243;BME280;20504;43.214;27.920;2023-04-04T01:52:35;98649.44;;;12.77;100.00
34243;BME280;20504;43.214;27.920;2023-04-04T01:55:01;98651.53;;;12.99;100.00
34243;BME280;20504;43.214;27.920;2023-04-04T01:57:27;98649.38;;;12.95;100.00
34243;BME280;20504;43.214;27.920;2023-04-04T01:59:53;98650.34;;;12.86;100.00
34243;BME280;20504;43.214;27.920;2023-04-04T02:02:18;98651.50;;;12.91;100.00
34243;BME280;20504;43.214;27.920;2023-04-04T02:04:44;98664.34;;;12.96;100.00
34243;BME280;20504;43.214;27.920;2023-04-04T02:07:10;98651.63;;;12.82;100.00
34243;BME280;20504;43.214;27.920;2023-04-04T02:09:35;98597.69;;;13.06;100.00
34243;BME280;20504;43.214;27.920;2023-04-04T02:12:01;98623.19;;;12.82;100.00
34243;BME280;20504;43.214;27.920;2023-04-04T02:14:26;98621.66;;;12.71;100.00
34243;BME280;20504;43.214;27.920;2023-04-04T02:16:52;98571.53;;;12.93;100.00
34243;BME280;20504;43.214;27.920;2023-04-04T02:19:18;98527.97;;;12.86;100.00
34243;BME280;20504;43.214;27.920;2023-04-04T02:21:44;98502.69;;;12.90;100.00
34243;BME280;20504;43.214;27.920;2023-04-04T02:24:10;98449.81;;;12.95;100.00
34243;BME280;20504;43.214;27.920;2023-04-04T02:26:35;98437.38;;;13.12;100.00
34243;BME280;20504;43.214;27.920;2023-04-04T02:29:01;98413.25;;;13.13;100.00
34243;BME280;20504;43.214;27.920;2023-04-04T02:31:27;98373.88;;;13.25;100.00
34243;BME280;20504;43.214;27.920;2023-04-04T02:33:52;98363.22;;;13.25;100.00
34243;BME280;20504;43.214;27.920;2023-04-04T02:36:18;98354.22;;;13.34;100.00
34243;BME280;20504;43.214;27.920;2023-04-04T02:38:43;98363.19;;;13.17;100.00
34243;BME280;20504;43.214;27.920;2023-04-04T02:41:09;98345.59;;;13.24;100.00
34243;BME280;20504;43.214;27.920;2023-04-04T02:43:34;98327.28;;;13.29;100.00
34243;BME280;20504;43.214;27.920;2023-04-04T02:46:00;98311.31;;;13.29;100.00
34243;BME280;20504;43.214;27.920;2023-04-04T02:48:26;98304.97;;;13.30;100.00
34243;BME280;20504;43.214;27.920;2023-04-04T02:50:51;98289.31;;;13.35;100.00
34243;BME280;20504;43.214;27.920;2023-04-04T02:53:17;98294.69;;;13.27;100.00
34243;BME280;20504;43.214;27.920;2023-04-04T02:55:42;98269.38;;;13.31;100.00
34243;BME280;20504;43.214;27.920;2023-04-04T02:58:08;98297.69;;;13.24;100.00
34243;BME280;20504;43.214;27.920;2023-04-04T03:00:33;98295.50;;;13.19;100.00
34243;BME280;20504;43.214;27.920;2023-04-04T03:02:59;98277.72;;;13.28;100.00
34243;BME280;20504;43.214;27.920;2023-04-04T03:05:26;98269.38;;;13.39;100.00
34243;BME280;20504;43.214;27.920;2023-04-04T03:07:56;98228.91;;;13.44;100.00
34243;BME280;20504;43.214;27.920;2023-04-04T03:10:23;98306.97;;;13.44;100.00
34243;BME280;20504;43.214;27.920;2023-04-04T03:12:48;98309.97;;;13.41;100.00
34243;BME280;20504;43.214;27.920;2023-04-04T03:15:14;98362.22;;;13.26;100.00
34243;BME280;20504;43.214;27.920;2023-04-04T03:17:40;98387.00;;;13.43;100.00
34243;BME280;20504;43.214;27.920;2023-04-04T03:20:06;98391.63;;;13.49;100.00
34243;BME280;20504;43.214;27.920;2023-04-04T03:22:31;98414.78;;;13.48;100.00
34243;BME280;20504;43.214;27.920;2023-04-04T03:24:57;98476.19;;;13.22;100.00
34243;BME280;20504;43.214;27.920;2023-04-04T03:27:22;98489.66;;;13.29;100.00
34243;BME280;20504;43.214;27.920;2023-04-04T03:29:48;98516.09;;;13.22;100.00
34243;BME280;20504;43.214;27.920;2023-04-04T03:32:13;98516.53;;;13.01;100.00
34243;BME280;20504;43.214;27.920;2023-04-04T03:34:39;98535.78;;;12.95;100.00
34243;BME280;20504;43.214;27.920;2023-04-04T03:37:04;98516.00;;;12.98;100.00
34243;BME280;20504;43.214;27.920;2023-04-04T03:39:30;98469.31;;;13.12;100.00
34243;BME280;20504;43.214;27.920;2023-04-04T03:41:56;98450.69;;;13.20;100.00
34243;BME280;20504;43.214;27.920;2023-04-04T03:44:22;98412.63;;;13.44;100.00
34243;BME280;20504;43.214;27.920;2023-04-04T03:46:48;98416.91;;;13.53;100.00
34243;BME280;20504;43.214;27.920;2023-04-04T03:49:13;98503.81;;;13.46;100.00
34243;BME280;20504;43.214;27.920;2023-04-04T03:51:40;98500.47;;;13.52;100.00
34243;BME280;20504;43.214;27.920;2023-04-04T03:54:05;98555.41;;;13.61;100.00
34243;BME280;20504;43.214;27.920;2023-04-04T03:56:31;98564.56;;;13.58;100.00
34243;BME280;20504;43.214;27.920;2023-04-04T03:58:57;98636.44;;;13.50;100.00
34243;BME280;20504;43.214;27.920;2023-04-04T04:01:22;98664.94;;;13.66;100.00
34243;BME280;20504;43.214;27.920;2023-04-04T04:03:48;98692.53;;;13.57;100.00
34243;BME280;20504;43.214;27.920;2023-04-04T04:06:13;98693.81;;;13.37;100.00
34243;BME280;20504;43.214;27.920;2023-04-04T04:08:39;98740.75;;;13.12;100.00
34243;BME280;20504;43.214;27.920;2023-04-04T04:11:05;98667.50;;;13.33;100.00
34243;BME280;20504;43.214;27.920;2023-04-04T04:13:31;98619.41;;;13.27;100.00
34243;BME280;20504;43.214;27.920;2023-04-04T04:15:56;98598.84;;;13.45;100.00
34243;BME280;20504;43.214;27.920;2023-04-04T04:18:22;98602.81;;;13.41;100.00
34243;BME280;20504;43.214;27.920;2023-04-04T04:20:47;98587.19;;;13.46;100.00
34243;BME280;20504;43.214;27.920;2023-04-04T04:23:13;98615.41;;;13.23;100.00
34243;BME280;20504;43.214;27.920;2023-04-04T04:25:38;98564.19;;;13.37;100.00
34243;BME280;20504;43.214;27.920;2023-04-04T04:28:03;98550.22;;;13.35;100.00
34243;BME280;20504;43.214;27.920;2023-04-04T04:30:29;98523.75;;;13.33;100.00
34243;BME280;20504;43.214;27.920;2023-04-04T04:32:55;98495.16;;;13.52;100.00
34243;BME280;20504;43.214;27.920;2023-04-04T04:35:21;98525.25;;;13.36;100.00
34243;BME280;20504;43.214;27.920;2023-04-04T04:37:46;98475.34;;;13.54;100.00
34243;BME280;20504;43.214;27.920;2023-04-04T04:40:12;98487.50;;;13.49;100.00
34243;BME280;20504;43.214;27.920;2023-04-04T04:42:46;98471.69;;;13.39;100.00
34243;BME280;20504;43.214;27.920;2023-04-04T04:45:11;98497.97;;;13.34;100.00
34243;BME280;20504;43.214;27.920;2023-04-04T04:47:37;98506.63;;;13.28;100.00
34243;BME280;20504;43.214;27.920;2023-04-04T04:50:03;98513.94;;;13.34;100.00
34243;BME280;20504;43.214;27.920;2023-04-04T04:52:29;98499.75;;;13.17;100.00
34243;BME280;20504;43.214;27.920;2023-04-04T04:54:55;98506.31;;;13.47;100.00
34243;BME280;20504;43.214;27.920;2023-04-04T04:57:21;98525.75;;;13.56;100.00
34243;BME280;20504;43.214;27.920;2023-04-04T04:59:47;98517.63;;;13.57;100.00
34243;BME280;20504;43.214;27.920;2023-04-04T05:02:14;98552.91;;;13.43;100.00
34243;BME280;20504;43.214;27.920;2023-04-04T05:04:39;98586.88;;;13.57;100.00
34243;BME280;20504;43.214;27.920;2023-04-04T05:07:05;98603.81;;;13.48;100.00
34243;BME280;20504;43.214;27.920;2023-04-04T05:09:32;98661.78;;;13.62;100.00
34243;BME280;20504;43.214;27.920;2023-04-04T05:11:58;98698.19;;;13.54;100.00
34243;BME280;20504;43.214;27.920;2023-04-04T05:14:24;98733.56;;;13.72;100.00
34243;BME280;20504;43.214;27.920;2023-04-04T05:16:49;98802.28;;;13.60;100.00
34243;BME280;20504;43.214;27.920;2023-04-04T05:19:15;98847.78;;;13.41;100.00
34243;BME280;20504;43.214;27.920;2023-04-04T05:21:42;98854.09;;;13.40;100.00
34243;BME280;20504;43.214;27.920;2023-04-04T05:24:07;98867.13;;;13.77;100.00
34243;BME280;20504;43.214;27.920;2023-04-04T05:26:33;98918.16;;;13.64;100.00
34243;BME280;20504;43.214;27.920;2023-04-04T05:28:59;98947.81;;;13.70;100.00
34243;BME280;20504;43.214;27.920;2023-04-04T05:31:25;98966.25;;;13.89;100.00
34243;BME280;20504;43.214;27.920;2023-04-04T05:33:50;98975.66;;;14.01;100.00
34243;BME280;20504;43.214;27.920;2023-04-04T05:36:16;99019.81;;;14.04;100.00
34243;BME280;20504;43.214;27.920;2023-04-04T05:38:42;99067.81;;;14.04;100.00
34243;BME280;20504;43.214;27.920;2023-04-04T05:41:07;99104.47;;;13.84;100.00
34243;BME280;20504;43.214;27.920;2023-04-04T05:43:32;99089.91;;;14.22;100.00
34243;BME280;20504;43.214;27.920;2023-04-04T05:45:58;99159.63;;;14.09;100.00
34243;BME280;20504;43.214;27.920;2023-04-04T05:48:23;99197.22;;;13.98;100.00
34243;BME280;20504;43.214;27.920;2023-04-04T05:50:49;99200.09;;;14.05;100.00
34243;BME280;20504;43.214;27.920;2023-04-04T05:53:15;99263.38;;;14.20;100.00
34243;BME280;20504;43.214;27.920;2023-04-04T05:55:40;99306.38;;;13.90;100.00
34243;BME280;20504;43.214;27.920;2023-04-04T05:58:06;99296.53;;;14.18;100.00
34243;BME280;20504;43.214;27.920;2023-04-04T06:00:31;99323.25;;;14.08;100.00
34243;BME280;20504;43.214;27.920;2023-04-04T06:02:57;99311.75;;;14.08;100.00
34243;BME280;20504;43.214;27.920;2023-04-04T06:05:23;99341.78;;;14.28;100.00
34243;BME280;20504;43.214;27.920;2023-04-04T06:07:49;99392.72;;;14.07;100.00
34243;BME280;20504;43.214;27.920;2023-04-04T06:10:14;99385.91;;;14.22;100.00
34243;BME280;20504;43.214;27.920;2023-04-04T06:12:40;99412.47;;;14.14;100.00
34243;BME280;20504;43.214;27.920;2023-04-04T06:15:06;99432.22;;;14.21;100.00
34243;BME280;20504;43.214;27.920;2023-04-04T06:17:32;99449.88;;;14.22;100.00
34243;BME280;20504;43.214;27.920;2023-04-04T06:19:57;99497.97;;;13.93;100.00
34243;BME280;20504;43.214;27.920;2023-04-04T06:22:23;99505.50;;;14.17;100.00
34243;BME280;20504;43.214;27.920;2023-04-04T06:24:48;99521.72;;;14.33;100.00
34243;BME280;20504;43.214;27.920;2023-04-04T06:27:14;99557.53;;;14.21;100.00
34243;BME280;20504;43.214;27.920;2023-04-04T06:29:40;99559.91;;;14.24;100.00
34243;BME280;20504;43.214;27.920;2023-04-04T06:32:05;99560.72;;;14.44;100.00
34243;BME280;20504;43.214;27.920;2023-04-04T06:34:31;99558.59;;;14.47;100.00
34243;BME280;20504;43.214;27.920;2023-04-04T06:36:57;99596.31;;;14.06;100.00
34243;BME280;20504;43.214;27.920;2023-04-04T06:39:22;99613.84;;;14.08;100.00
34243;BME280;20504;43.214;27.920;2023-04-04T06:41:48;99605.69;;;14.10;100.00
34243;BME280;20504;43.214;27.920;2023-04-04T06:44:13;99580.94;;;14.37;100.00
34243;BME280;20504;43.214;27.920;2023-04-04T06:46:39;99561.28;;;14.38;100.00
34243;BME280;20504;43.214;27.920;2023-04-04T06:49:05;99561.88;;;14.32;100.00
34243;BME280;20504;43.214;27.920;2023-04-04T06:51:32;99529.41;;;14.36;100.00
34243;BME280;20504;43.214;27.920;2023-04-04T06:53:59;99502.28;;;14.50;100.00
34243;BME280;20504;43.214;27.920;2023-04-04T06:56:25;99467.84;;;14.57;100.00
34243;BME280;20504;43.214;27.920;2023-04-04T06:58:54;99461.72;;;14.47;100.00
34243;BME280;20504;43.214;27.920;2023-04-04T07:01:19;99481.44;;;14.81;100.00
34243;BME280;20504;43.214;27.920;2023-04-04T07:03:45;99500.53;;;14.59;100.00
34243;BME280;20504;43.214;27.920;2023-04-04T07:06:10;99535.00;;;14.43;100.00
34243;BME280;20504;43.214;27.920;2023-04-04T07:08:36;99554.66;;;14.42;100.00
34243;BME280;20504;43.214;27.920;2023-04-04T07:11:02;99550.56;;;14.57;100.00
34243;BME280;20504;43.214;27.920;2023-04-04T07:13:28;99547.53;;;14.33;100.00
34243;BME280;20504;43.214;27.920;2023-04-04T07:15:53;99568.97;;;14.78;100.00
34243;BME280;20504;43.214;27.920;2023-04-04T07:18:19;99619.53;;;14.52;100.00
34243;BME280;20504;43.214;27.920;2023-04-04T07:20:45;99633.66;;;14.62;100.00
34243;BME280;20504;43.214;27.920;2023-04-04T07:23:11;99641.06;;;14.68;100.00
34243;BME280;20504;43.214;27.920;2023-04-04T07:25:37;99658.22;;;14.66;100.00
34243;BME280;20504;43.214;27.920;2023-04-04T07:28:03;99664.75;;;14.91;100.00
34243;BME280;20504;43.214;27.920;2023-04-04T07:30:29;99689.63;;;14.81;100.00
34243;BME280;20504;43.214;27.920;2023-04-04T07:33:00;99710.19;;;14.62;100.00
34243;BME280;20504;43.214;27.920;2023-04-04T07:35:26;99717.06;;;14.64;100.00
34243;BME280;20504;43.214;27.920;2023-04-04T07:37:51;99753.94;;;14.98;100.00
34243;BME280;20504;43.214;27.920;2023-04-04T07:40:18;99808.94;;;14.62;100.00
34243;BME280;20504;43.214;27.920;2023-04-04T07:42:44;99851.19;;;14.47;100.00
34243;BME280;20504;43.214;27.920;2023-04-04T07:45:10;99872.84;;;14.53;100.00
34243;BME280;20504;43.214;27.920;2023-04-04T07:47:36;99867.81;;;14.70;100.00
34243;BME280;20504;43.214;27.920;2023-04-04T07:50:02;99848.78;;;15.02;100.00
34243;BME280;20504;43.214;27.920;2023-04-04T07:52:28;99878.47;;;14.79;100.00
34243;BME280;20504;43.214;27.920;2023-04-04T07:54:54;99923.97;;;14.68;100.00
34243;BME280;20504;43.214;27.920;2023-04-04T07:57:20;99957.41;;;14.53;100.00
34243;BME280;20504;43.214;27.920;2023-04-04T07:59:45;99952.63;;;14.85;100.00
34243;BME280;20504;43.214;27.920;2023-04-04T08:02:11;99959.63;;;14.67;100.00
34243;BME280;20504;43.214;27.920;2023-04-04T08:04:37;99945.06;;;15.00;100.00
34243;BME280;20504;43.214;27.920;2023-04-04T08:07:02;99954.06;;;14.90;100.00
34243;BME280;20504;43.214;27.920;2023-04-04T08:09:28;99970.22;;;14.88;100.00
34243;BME280;20504;43.214;27.920;2023-04-04T08:11:59;99917.81;;;15.06;100.00
34243;BME280;20504;43.214;27.920;2023-04-04T08:14:25;99937.72;;;15.22;100.00
34243;BME280;20504;43.214;27.920;2023-04-04T08:16:51;99967.66;;;15.35;100.00
34243;BME280;20504;43.214;27.920;2023-04-04T08:19:17;100019.13;;;15.37;100.00
34243;BME280;20504;43.214;27.920;2023-04-04T08:21:43;100043.47;;;15.43;100.00
34243;BME280;20504;43.214;27.920;2023-04-04T08:24:10;100098.84;;;15.32;100.00
34243;BME280;20504;43.214;27.920;2023-04-04T08:26:36;100195.50;;;15.47;100.00
34243;BME280;20504;43.214;27.920;2023-04-04T08:29:01;100233.81;;;15.66;100.00
34243;BME280;20504;43.214;27.920;2023-04-04T08:31:27;100310.22;;;15.38;100.00
34243;BME280;20504;43.214;27.920;2023-04-04T08:33:54;100384.56;;;15.54;100.00
34243;BME280;20504;43.214;27.920;2023-04-04T08:36:20;100427.91;;;16.19;100.00
34243;BME280;20504;43.214;27.920;2023-04-04T08:38:45;100464.13;;;16.32;100.00
34243;BME280;20504;43.214;27.920;2023-04-04T08:41:11;100575.88;;;15.89;100.00
34243;BME280;20504;43.214;27.920;2023-04-04T08:43:37;100726.81;;;15.96;100.00
34243;BME280;20504;43.214;27.920;2023-04-04T08:46:06;100788.09;;;15.99;100.00
34243;BME280;20504;43.214;27.920;2023-04-04T08:48:34;100875.50;;;16.10;100.00
34243;BME280;20504;43.214;27.920;2023-04-04T08:51:02;101002.69;;;16.36;100.00
34243;BME280;20504;43.214;27.920;2023-04-04T08:53:29;101109.50;;;16.05;100.00
34243;BME280;20504;43.214;27.920;2023-04-04T08:55:55;101235.72;;;16.46;100.00
34243;BME280;20504;43.214;27.920;2023-04-04T08:58:23;101294.44;;;16.25;100.00
34243;BME280;20504;43.214;27.920;2023-04-04T09:00:52;101421.16;;;16.37;100.00
34243;BME280;20504;43.214;27.920;2023-04-04T09:03:40;101412.50;;;16.92;100.00
34243;BME280;20504;43.214;27.920;2023-04-04T09:06:07;101572.00;;;16.85;100.00
34243;BME280;20504;43.214;27.920;2023-04-04T09:08:33;101691.72;;;16.84;100.00
34243;BME280;20504;43.214;27.920;2023-04-04T09:11:01;101826.66;;;16.83;100.00
34243;BME280;20504;43.214;27.920;2023-04-04T09:13:27;101959.28;;;17.03;100.00
34243;BME280;20504;43.214;27.920;2023-04-04T09:15:54;102038.41;;;16.69;100.00
34243;BME280;20504;43.214;27.920;2023-04-04T09:18:21;102160.41;;;16.46;100.00
34243;BME280;20504;43.214;27.920;2023-04-04T09:20:48;102262.72;;;16.23;100.00
34243;BME280;20504;43.214;27.920;2023-04-04T09:23:18;102364.94;;;16.29;100.00
34243;BME280;20504;43.214;27.920;2023-04-04T09:25:54;102462.03;;;16.79;100.00
34243;BME280;20504;43.214;27.920;2023-04-04T09:28:21;102553.25;;;17.21;100.00
34243;BME280;20504;43.214;27.920;2023-04-04T09:30:48;102576.31;;;16.48;100.00
34243;BME280;20504;43.214;27.920;2023-04-04T09:33:16;102698.13;;;16.74;100.00
34243;BME280;20504;43.214;27.920;2023-04-04T09:35:48;102736.81;;;16.69;100.00
34243;BME280;20504;43.214;27.920;2023-04-04T09:38:16;102806.41;;;16.20;100.00
34243;BME280;20504;43.214;27.920;2023-04-04T09:40:43;102908.91;;;16.04;100.00
34243;BME280;20504;43.214;27.920;2023-04-04T09:43:10;103013.03;;;15.73;100.00
34243;BME280;20504;43.214;27.920;2023-04-04T09:45:39;103096.50;;;15.81;100.00
34243;BME280;20504;43.214;27.920;2023-04-04T09:48:06;103180.03;;;16.27;100.00
34243;BME280;20504;43.214;27.920;2023-04-04T09:50:36;103181.06;;;16.24;100.00
34243;BME280;20504;43.214;27.920;2023-04-04T09:53:02;103203.69;;;16.36;100.00
34243;BME280;20504;43.214;27.920;2023-04-04T09:55:34;103185.03;;;16.53;100.00
34243;BME280;20504;43.214;27.920;2023-04-04T09:58:26;103052.16;;;16.49;100.00
34243;BME280;20504;43.214;27.920;2023-04-04T10:00:58;103036.25;;;16.46;100.00
34243;BME280;20504;43.214;27.920;2023-04-04T10:03:25;103072.91;;;16.82;100.00
34243;BME280;20504;43.214;27.920;2023-04-04T10:05:55;103101.53;;;17.16;100.00
34243;BME280;20504;43.214;27.920;2023-04-04T10:08:23;103050.41;;;17.19;100.00
34243;BME280;20504;43.214;27.920;2023-04-04T10:11:03;103082.19;;;17.26;100.00
34243;BME280;20504;43.214;27.920;2023-04-04T10:13:34;103019.63;;;17.26;100.00
34243;BME280;20504;43.214;27.920;2023-04-04T10:16:03;103071.06;;;17.34;100.00
34243;BME280;20504;43.214;27.920;2023-04-04T10:18:30;103124.41;;;17.40;100.00
34243;BME280;20504;43.214;27.920;2023-04-04T10:20:58;103143.22;;;16.87;100.00
34243;BME280;20504;43.214;27.920;2023-04-04T10:23:25;103216.94;;;16.78;100.00
34243;BME280;20504;43.214;27.920;2023-04-04T10:25:55;103256.47;;;16.73;100.00
34243;BME280;20504;43.214;27.920;2023-04-04T10:28:23;103300.22;;;16.53;100.00
34243;BME280;20504;43.214;27.920;2023-04-04T10:37:59;103139.78;;;17.02;100.00
34243;BME280;20504;43.214;27.920;2023-04-04T10:40:35;103159.03;;;17.10;100.00
34243;BME280;20504;43.214;27.920;2023-04-04T10:43:05;103234.19;;;17.09;100.00
34243;BME280;20504;43.214;27.920;2023-04-04T10:45:32;103289.38;;;16.95;100.00
34243;BME280;20504;43.214;27.920;2023-04-04T10:48:02;103351.03;;;16.95;100.00
34243;BME280;20504;43.214;27.920;2023-04-04T10:50:28;103372.38;;;16.78;100.00
34243;BME280;20504;43.214;27.920;2023-04-04T10:52:56;103473.72;;;17.09;100.00
34243;BME280;20504;43.214;27.920;2023-04-04T10:55:24;103490.81;;;17.07;100.00
34243;BME280;20504;43.214;27.920;2023-04-04T10:57:51;103511.06;;;16.73;100.00
34243;BME280;20504;43.214;27.920;2023-04-04T11:00:19;103729.25;;;17.55;100.00
34243;BME280;20504;43.214;27.920;2023-04-04T11:05:30;103674.50;;;17.39;100.00
34243;BME280;20504;43.214;27.920;2023-04-04T11:08:04;103592.81;;;17.65;100.00
34243;BME280;20504;43.214;27.920;2023-04-04T11:10:32;103555.00;;;17.90;100.00
34243;BME280;20504;43.214;27.920;2023-04-04T11:13:01;103446.75;;;17.70;100.00
34243;BME280;20504;43.214;27.920;2023-04-04T11:15:53;103343.50;;;17.95;100.00
34243;BME280;20504;43.214;27.920;2023-04-04T11:18:21;103295.25;;;17.93;100.00
34243;BME280;20504;43.214;27.920;2023-04-04T11:20:47;103275.56;;;17.75;100.00
34243;BME280;20504;43.214;27.920;2023-04-04T11:23:16;103325.81;;;17.91;100.00
34243;BME280;20504;43.214;27.920;2023-04-04T11:25:54;103306.53;;;18.00;100.00
34243;BME280;20504;43.214;27.920;2023-04-04T11:31:27;103307.81;;;17.56;100.00
34243;BME280;20504;43.214;27.920;2023-04-04T11:34:14;103290.66;;;17.06;100.00
34243;BME280;20504;43.214;27.920;2023-04-04T11:39:31;103503.56;;;17.41;100.00
34243;BME280;20504;43.214;27.920;2023-04-04T11:44:39;103464.41;;;17.93;100.00
34243;BME280;20504;43.214;27.920;2023-04-04T11:49:35;103455.59;;;18.08;100.00
34243;BME280;20504;43.214;27.920;2023-04-04T11:52:05;103465.09;;;18.33;100.00
34243;BME280;20504;43.214;27.920;2023-04-04T11:54:31;103454.84;;;18.24;100.00
34243;BME280;20504;43.214;27.920;2023-04-04T11:56:57;103475.06;;;18.48;100.00
34243;BME280;20504;43.214;27.920;2023-04-04T11:59:23;103436.56;;;18.48;100.00
34243;BME280;20504;43.214;27.920;2023-04-04T12:01:49;103440.84;;;18.69;100.00
34243;BME280;20504;43.214;27.920;2023-04-04T12:04:18;103376.66;;;18.63;100.00
34243;BME280;20504;43.214;27.920;2023-04-04T12:06:52;103319.53;;;18.42;100.00
34243;BME280;20504;43.214;27.920;2023-04-04T12:09:19;103300.88;;;18.22;100.00
34243;BME280;20504;43.214;27.920;2023-04-04T12:11:48;103298.38;;;18.01;100.00
34243;BME280;20504;43.214;27.920;2023-04-04T12:14:21;103310.03;;;18.35;100.00
34243;BME280;20504;43.214;27.920;2023-04-04T12:16:49;103314.16;;;18.58;100.00
34243;BME280;20504;43.214;27.920;2023-04-04T12:19:16;103297.16;;;18.74;100.00
34243;BME280;20504;43.214;27.920;2023-04-04T12:21:45;103220.88;;;18.44;100.00
34243;BME280;20504;43.214;27.920;2023-04-04T12:24:11;103222.81;;;18.73;100.00
34243;BME280;20504;43.214;27.920;2023-04-04T12:26:40;103189.75;;;19.03;100.00
34243;BME280;20504;43.214;27.920;2023-04-04T12:29:07;103143.53;;;19.71;100.00
34243;BME280;20504;43.214;27.920;2023-04-04T12:31:37;103026.13;;;19.82;100.00
34243;BME280;20504;43.214;27.920;2023-04-04T12:34:03;102896.19;;;19.79;100.00
34243;BME280;20504;43.214;27.920;2023-04-04T12:36:29;102784.59;;;19.29;100.00
34243;BME280;20504;43.214;27.920;2023-04-04T12:39:08;102680.31;;;19.20;100.00
34243;BME280;20504;43.214;27.920;2023-04-04T12:41:52;102611.94;;;19.10;100.00
34243;BME280;20504;43.214;27.920;2023-04-04T12:44:35;102543.13;;;19.32;100.00
34243;BME280;20504;43.214;27.920;2023-04-04T12:47:06;102505.03;;;19.26;100.00
34243;BME280;20504;43.214;27.920;2023-04-04T12:49:40;102451.66;;;19.20;100.00
34243;BME280;20504;43.214;27.920;2023-04-04T12:52:20;102402.53;;;19.67;100.00
34243;BME280;20504;43.214;27.920;2023-04-04T12:54:47;102387.78;;;19.96;100.00
34243;BME280;20504;43.214;27.920;2023-04-04T12:57:23;102254.97;;;20.53;100.00
34243;BME280;20504;43.214;27.920;2023-04-04T12:59:53;102129.50;;;20.27;100.00